• Join FlightAware (Why Join?)
  • Login
  • US Flag 
09:49AM EDT


 

Airport Tracker/Info


-or-


 

Live Flight TrackerFlight Track Log ✈ FFT938 ✈ 28-Jul-2013 ✈ KCMH - KTTN

Flight Track Log - Related Links

Times and Time Zones

All times are in EDT time to prevent confusion due to time zone crossing. See the FFT938 flight status page for this flight to view local times or setup timezone preferences in your user account.

Time Position Orientation Groundspeed Altitude Reporting Facility
EDT Latitude Longitude Course Direction KTS MPH feet Rate Location/Type
05:39PM 39.9960 -82.9210 273° West 170 196 1,700  Level FlightAware
05:40PM 39.9980 -82.9520 275° West 199 229 2,400 2,160 Climbing FlightAware
05:40PM 40.0000 -82.9830 275° West 212 244 3,600 3,180 Climbing FlightAware
05:41PM 40.0020 -83.0210 274° West 216 249 5,300 3,420 Climbing FlightAware
05:41PM 40.0030 -83.0370 275° West 213 245 6,000 3,540 Climbing FlightAware
05:41PM 40.0040 -83.0750 272° West 210 242 7,800 3,240 Climbing FlightAware
05:42PM 39.9940 -83.1070 248° West 228 262 9,200 2,580 Climbing FlightAware
05:42PM 39.9770 -83.1150 200° South 257 296 9,700 1,020 Climbing FlightAware
05:43PM 39.9470 -83.1030 163° South 291 335 9,900 420 Climbing FlightAware
05:43PM 39.9360 -83.0870 132° Southeast 310 357 10,000 780 Climbing FlightAware
05:43PM 39.9270 -83.0530 109° East 339 390 10,300 1,380 Climbing FlightAware
05:44PM 39.9220 -82.9620 94° East 382 440 11,400 2,040 Climbing FlightAware
05:44PM 39.9190 -82.8850 93° East 394 453 12,900 2,580 Climbing FlightAware
05:45PM 39.9190 -82.7920 90° East 401 461 14,700 2,520 Climbing FlightAware
05:46PM 39.9340 -82.6940 79° East 409 471 16,500 2,340 Climbing FlightAware
05:46PM 39.9480 -82.6040 79° East 424 488 17,800 2,100 Climbing FlightAware
05:47PM 39.9660 -82.4970 78° East 436 502 19,300 2,040 Climbing FlightAware
05:48PM 39.9840 -82.3820 78° East 444 511 20,700 1,680 Climbing FlightAware
05:48PM 40.0020 -82.2680 78° East 452 520 21,700 1,320 Climbing FlightAware
05:49PM 40.0200 -82.1600 78° East 460 529 22,600 1,200 Climbing FlightAware
05:50PM 40.0370 -82.0520 78° East 480 552 23,300 1,620 Climbing FlightAware
05:51PM 40.0860 -81.7340 79° East 496 571 26,600 1,680 Climbing FlightAware
05:52PM 40.1060 -81.6030 79° East 502 578 27,700 1,320 Climbing FlightAware
05:53PM 40.1240 -81.4900 78° East 509 586 28,500 900 Climbing FlightAware
05:54PM 40.1440 -81.3580 79° East 515 593 29,000 300 Climbing FlightAware
05:54PM 40.1630 -81.2280 79° East 514 592 29,000  Level FlightAware
05:55PM 40.1830 -81.0970 79° East 506 582 29,000 60 Level FlightAware
05:56PM 40.2010 -80.9750 79° East 504 580 29,100 240 Climbing FlightAware
05:56PM 40.2160 -80.8740 79° East 508 585 29,300 360 Climbing FlightAware
05:57PM 40.2360 -80.7360 79° East 508 585 29,600 540 Climbing FlightAware
05:58PM 40.2530 -80.6150 80° East 506 582 30,100 840 Climbing FlightAware
05:58PM 40.2620 -80.5180 83° East 498 573 30,700 600 Climbing FlightAware
05:59PM 40.2680 -80.3600 87° East 482 555 31,000 180 Climbing FlightAware
06:00PM 40.2720 -80.2560 87° East 479 551 31,000  Level FlightAware
06:00PM 40.2770 -80.1310 87° East 478 550 31,000  Level FlightAware
06:01PM 40.2810 -80.0040 88° East 482 555 31,000 60 Level FlightAware
06:02PM 40.2860 -79.8750 87° East 482 555 31,100 60 Climbing FlightAware
06:03PM 40.2900 -79.7580 87° East 481 554 31,100 -120 Level FlightAware
06:03PM 40.2940 -79.6310 88° East 479 551 31,000 -120 Descending FlightAware
06:04PM 40.2980 -79.5160 87° East 480 552 31,000  Level FlightAware
06:05PM 40.3020 -79.3870 88° East 482 555 31,000  Level FlightAware
06:05PM 40.3040 -79.2940 88° East 483 556 31,000  Level FlightAware
06:06PM 40.3080 -79.1680 88° East 482 555 31,000  Level FlightAware
06:07PM 40.3110 -79.0430 88° East 480 552 31,000  Level FlightAware
06:07PM 40.3140 -78.9420 88° East 481 554 31,000  Level FlightAware
06:08PM 40.3170 -78.8170 88° East 479 551 31,000  Level FlightAware
06:09PM 40.3170 -78.7030 90° East 475 547 31,000 -360 Level FlightAware
06:09PM 40.3160 -78.5770 91° East 476 548 30,500 -900 Descending FlightAware
06:10PM 40.3160 -78.4630 90° East 476 548 29,800 -1,080 Descending FlightAware
06:11PM 40.3160 -78.3610 90° East 476 548 29,200 -1,860 Descending FlightAware
06:11PM 40.3150 -78.2200 90° East 476 548 27,200 -1,320 Descending FlightAware
06:14PM 40.3120 -77.8060 90° East 436 502 24,800 -900 Descending FlightAware
06:15PM 40.3110 -77.6790 91° East 435 501 24,300 -780 Descending FlightAware
06:16PM 40.3090 -77.5600 91° East 428 493 23,700 -780 Descending FlightAware
06:16PM 40.3080 -77.4610 91° East 426 490 23,200 -840 Descending FlightAware
06:17PM 40.3070 -77.3540 91° East 426 490 22,600 -840 Descending FlightAware
06:18PM 40.3050 -77.2390 91° East 422 486 22,000 -660 Descending FlightAware
06:20PM 40.2560 -76.8660 100° East 403 464 20,500 -840 Descending FlightAware
06:21PM 40.2410 -76.7630 101° East 396 456 19,400 -1,200 Descending FlightAware
06:22PM 40.2230 -76.6500 102° East 390 449 18,800 -840 Descending FlightAware
06:22PM 40.2120 -76.5760 101° East 392 451 18,300 -1,200 Descending FlightAware
06:23PM 40.2020 -76.5110 101° East 389 448 17,600 -1,980 Descending FlightAware
06:25PM 40.1630 -76.2600 101° East 381 438 13,800 -1,980 Descending FlightAware
06:25PM 40.1480 -76.1650 102° East 368 423 12,600 -2,040 Descending FlightAware
06:26PM 40.1340 -76.0710 101° East 368 423 10,900 -1,620 Descending FlightAware
06:27PM 40.1210 -75.9880 102° East 342 394 10,400 -660 Descending FlightAware
06:27PM 40.1150 -75.9330 98° East 326 375 10,200 -720 Descending FlightAware
06:28PM 40.1220 -75.8900 78° East 321 369 9,800 -1,440 Descending FlightAware
06:28PM 40.1330 -75.8370 75° East 321 369 9,000 -1,440 Descending FlightAware
06:28PM 40.1420 -75.7850 77° East 310 357 8,500 -1,440 Descending FlightAware
06:29PM 40.1520 -75.7340 76° East 308 354 7,700 -1,500 Descending FlightAware
06:29PM 40.1610 -75.6840 77° East 303 349 7,100 -780 Descending FlightAware
06:30PM 40.1700 -75.6350 76° East 303 349 7,000 -120 Descending FlightAware
06:30PM 40.1780 -75.5880 77° East 304 350 7,000 -120 Level FlightAware
06:31PM 40.1860 -75.5420 77° East 301 346 6,900 -420 Descending FlightAware
06:31PM 40.1960 -75.4840 77° East 295 339 6,600 -600 Descending FlightAware
06:32PM 40.2010 -75.4550 77° East 293 337 6,400 -720 Descending FlightAware
06:32PM 40.2020 -75.3940 89° East 291 335 6,000 -780 Descending FlightAware
06:33PM 40.2030 -75.3490 88° East 290 334 5,700 -660 Descending FlightAware
06:33PM 40.2030 -75.3330 90° East 291 335 5,600 -780 Descending FlightAware
06:33PM 40.2030 -75.2790 90° East 290 334 5,200 -840 Descending FlightAware
06:33PM 40.2030 -75.2520 90° East 289 333 5,000 -900 Descending FlightAware
06:34PM 40.2030 -75.2180 90° East 286 329 4,700 -720 Descending FlightAware
06:34PM 40.2030 -75.1930 90° East 284 327 4,600 -540 Descending FlightAware
06:35PM 40.2040 -75.1150 89° East 282 325 4,200 -480 Descending FlightAware
06:35PM 40.2040 -75.0600 90° East 279 321 4,000 -480 Descending FlightAware
06:36PM 40.2040 -75.0220 90° East 281 323 3,800 -480 Descending FlightAware
06:36PM 40.2040 -74.9740 90° East 279 321 3,600 -540 Descending FlightAware
06:37PM 40.2040 -74.9200 90° East 275 316 3,300 -600 Descending FlightAware
06:37PM 40.2050 -74.8860 88° East 275 316 3,100 -780 Descending FlightAware
06:38PM 40.2050 -74.8380 90° East 273 314 2,700 -720 Descending FlightAware
06:38PM 40.2050 -74.8240 90° East 270 311 2,700 -180 Level FlightAware
06:38PM 40.2050 -74.7740 90° East 269 310 2,600 -300 Descending FlightAware
06:38PM 40.2080 -74.7460 82° East 261 300 2,500 -420 Descending FlightAware
06:39PM 40.2150 -74.7310 59° Northeast 255 293 2,400 -360 Descending FlightAware
06:39PM 40.2350 -74.7050 45° Northeast 238 274 2,300 -360 Descending FlightAware
06:40PM 40.2560 -74.6790 43° Northeast 242 278 2,100 -660 Descending FlightAware
06:40PM 40.2680 -74.6720 24° Northeast 243 280 1,900 -840 Descending FlightAware
06:40PM 40.2790 -74.6700 North 241 277 1,800 -300 Descending FlightAware
06:40PM 40.3100 -74.6880 336° Northwest 204 235 1,700  Descending FlightAware
06:41PM 40.3170 -74.7000 307° West 198 228 1,800  Climbing FlightAware
06:41PM 40.3210 -74.7140 291° West 193 222 1,700 -660 Descending FlightAware
06:42PM 40.3130 -74.7600 257° West 162 186 1,200 -720 Descending FlightAware
06:42PM 40.3000 -74.7833 257° West 148 170 700 -780 Descending Philadelphia TRACON
06:44PM 40.2667 -74.8000 217° Southwest  Level FlightAware Approximate
06:51PM 40.2767 -74.8135 217° Southwest  Level Estimated